createdAt,value
2017-10-05T00:02:11.611Z,10.52
2017-10-05T00:04:42.436Z,15.70
2017-10-05T00:07:13.308Z,18.08
2017-10-05T00:09:44.430Z,18.48
2017-10-05T00:12:15.533Z,12.05
2017-10-05T00:14:46.561Z,9.50
2017-10-05T00:17:18.104Z,10.25
2017-10-05T00:19:48.877Z,5.18
2017-10-05T00:22:19.982Z,11.30
2017-10-05T00:24:50.977Z,20.10
2017-10-05T00:27:21.341Z,18.37
2017-10-05T00:29:52.874Z,14.55
2017-10-05T00:32:23.325Z,11.90
2017-10-05T00:34:53.756Z,8.93
2017-10-05T00:37:24.534Z,17.23
2017-10-05T00:39:56.770Z,8.35
2017-10-05T00:42:27.892Z,11.35
2017-10-05T00:44:59.238Z,8.57
2017-10-05T00:47:30.813Z,14.30
2017-10-05T00:50:01.625Z,13.32
2017-10-05T00:52:32.482Z,11.07
2017-10-05T00:55:04.795Z,15.25
2017-10-05T00:57:35.747Z,21.48
2017-10-05T01:00:07.029Z,12.68
2017-10-05T01:02:38.490Z,10.90
2017-10-05T01:05:08.808Z,9.10
2017-10-05T01:07:40.121Z,13.10
2017-10-05T01:10:10.890Z,9.23
2017-10-05T01:12:42.402Z,19.27
2017-10-05T01:15:13.206Z,17.40
2017-10-05T01:17:44.552Z,16.45
2017-10-05T01:20:15.569Z,15.45
2017-10-05T01:22:46.686Z,9.20
2017-10-05T01:25:17.525Z,21.50
2017-10-05T01:27:48.362Z,12.52
2017-10-05T01:30:19.413Z,9.50
2017-10-05T01:32:50.941Z,16.10
2017-10-05T01:35:22.572Z,7.18
2017-10-05T01:37:53.572Z,18.62
2017-10-05T01:40:24.083Z,12.75
2017-10-05T01:42:55.234Z,19.92
2017-10-05T01:45:26.306Z,15.88
2017-10-05T01:47:58.463Z,18.15
2017-10-05T01:50:29.262Z,16.27
2017-10-05T01:53:00.093Z,22.52
2017-10-05T01:55:30.890Z,12.30
2017-10-05T01:58:03.139Z,14.00
2017-10-05T02:00:33.753Z,13.82
2017-10-05T02:03:05.680Z,17.27
2017-10-05T02:05:36.958Z,13.05
2017-10-05T02:08:08.311Z,26.52
2017-10-05T02:10:39.290Z,15.35
2017-10-05T02:13:09.834Z,13.52
2017-10-05T02:15:40.545Z,15.88
2017-10-05T02:18:12.472Z,16.45
2017-10-05T02:20:44.147Z,14.38
2017-10-05T02:23:14.961Z,12.75
2017-10-05T02:25:46.255Z,15.90
2017-10-05T02:28:17.167Z,10.70
2017-10-05T02:30:48.184Z,12.70
2017-10-05T02:33:20.076Z,15.38
2017-10-05T02:35:50.545Z,13.00
2017-10-05T02:38:23.761Z,18.05
2017-10-05T02:40:55.467Z,12.23
2017-10-05T02:43:26.250Z,10.63
2017-10-05T02:45:57.536Z,13.55
2017-10-05T02:48:28.175Z,12.98
2017-10-05T02:50:59.081Z,8.80
2017-10-05T02:53:29.876Z,13.15
2017-10-05T02:56:00.784Z,21.73
2017-10-05T02:58:32.602Z,19.83
2017-10-05T03:01:03.076Z,11.75
2017-10-05T03:03:34.076Z,16.08
2017-10-05T03:06:04.840Z,17.20
2017-10-05T03:08:35.830Z,19.30
2017-10-05T03:11:06.362Z,18.48
2017-10-05T03:13:38.126Z,10.27
2017-10-05T03:16:09.413Z,11.55
2017-10-05T03:18:40.972Z,9.40
2017-10-05T03:21:12.234Z,17.08
2017-10-05T03:23:44.968Z,29.40
2017-10-05T03:26:16.928Z,16.75
2017-10-05T03:28:47.646Z,13.40
2017-10-05T03:31:19.571Z,16.75
2017-10-05T03:33:50.662Z,15.70
2017-10-05T03:36:21.418Z,16.70
2017-10-05T03:38:53.400Z,13.82
2017-10-05T03:41:25.103Z,13.82
2017-10-05T03:43:56.817Z,21.73
2017-10-05T03:46:27.360Z,16.83
2017-10-05T03:48:58.247Z,11.40
2017-10-05T03:51:29.045Z,11.93
2017-10-05T03:54:01.034Z,15.13
2017-10-05T03:56:32.180Z,18.27
2017-10-05T03:59:02.903Z,18.45
2017-10-05T04:01:34.573Z,17.80
2017-10-05T04:04:06.053Z,12.82
2017-10-05T04:06:37.022Z,12.07
2017-10-05T04:09:08.127Z,15.82
2017-10-05T04:11:39.016Z,13.70
2017-10-05T04:14:10.905Z,9.48
2017-10-05T04:16:41.687Z,13.27
2017-10-05T04:19:12.093Z,19.15
2017-10-05T04:21:42.841Z,14.87
2017-10-05T04:24:14.010Z,19.35
2017-10-05T04:26:44.982Z,15.30
2017-10-05T04:29:15.905Z,21.30
2017-10-05T04:31:46.706Z,17.23
2017-10-05T04:34:17.440Z,15.55
2017-10-05T04:36:48.430Z,12.15
2017-10-05T04:39:19.575Z,12.10
2017-10-05T04:41:51.435Z,14.00
2017-10-05T04:44:22.488Z,12.65
2017-10-05T04:46:53.231Z,14.85
2017-10-05T04:49:24.104Z,13.35
2017-10-05T04:51:55.132Z,12.95
2017-10-05T04:54:27.035Z,14.35
2017-10-05T04:56:58.179Z,19.08
2017-10-05T04:59:30.484Z,21.05
2017-10-05T05:02:01.252Z,20.73
2017-10-05T05:04:32.081Z,15.75
2017-10-05T05:07:03.259Z,17.77
2017-10-05T05:09:33.980Z,22.52
2017-10-05T05:12:04.937Z,29.00
2017-10-05T05:14:36.157Z,24.73
2017-10-05T05:17:07.648Z,15.60
2017-10-05T05:19:38.957Z,16.77
2017-10-05T05:22:10.235Z,14.38
2017-10-05T05:24:40.950Z,15.82
2017-10-05T05:27:12.125Z,20.88
2017-10-05T05:29:43.170Z,18.48
2017-10-05T05:32:13.845Z,14.40
2017-10-05T05:34:45.477Z,23.17
2017-10-05T05:37:16.603Z,25.02
2017-10-05T05:39:47.698Z,20.27
2017-10-05T05:42:19.844Z,15.77
2017-10-05T05:44:51.773Z,25.00
2017-10-05T05:47:22.609Z,20.67
2017-10-05T05:49:55.198Z,18.50
2017-10-05T05:52:26.188Z,30.98
2017-10-05T05:54:56.936Z,22.30
2017-10-05T05:57:27.850Z,23.52
2017-10-05T05:59:59.669Z,26.90
2017-10-05T06:02:30.799Z,29.35
2017-10-05T06:05:03.405Z,17.20
2017-10-05T06:07:34.348Z,28.25
2017-10-05T06:10:05.594Z,20.45
2017-10-05T06:12:37.716Z,22.33
2017-10-05T06:15:09.329Z,20.95
2017-10-05T06:17:41.058Z,28.23
2017-10-05T06:20:13.026Z,19.80
2017-10-05T06:22:45.472Z,32.83
2017-10-05T06:25:16.071Z,21.12
2017-10-05T06:27:46.950Z,16.87
2017-10-05T06:30:18.715Z,27.90
2017-10-05T06:32:49.354Z,29.45
2017-10-05T06:35:21.369Z,23.00
2017-10-05T06:37:53.906Z,21.48
2017-10-05T06:40:24.598Z,21.12
2017-10-05T06:42:57.334Z,23.35
2017-10-05T06:45:28.545Z,19.70
2017-10-05T06:47:59.788Z,24.30
2017-10-05T06:50:30.700Z,18.25
2017-10-05T06:53:01.511Z,19.05
2017-10-05T06:55:32.795Z,24.00
2017-10-05T06:58:03.171Z,24.77
2017-10-05T07:00:34.606Z,24.87
2017-10-05T07:03:06.065Z,16.92
2017-10-05T07:05:38.732Z,16.67
2017-10-05T07:08:09.579Z,27.55
2017-10-05T07:10:40.758Z,28.40
2017-10-05T07:13:12.674Z,23.30
2017-10-05T07:15:44.955Z,25.02
2017-10-05T07:18:17.153Z,17.75
2017-10-05T07:20:49.093Z,17.95
2017-10-05T07:23:20.808Z,20.67
2017-10-05T07:25:52.362Z,28.02
2017-10-05T07:28:23.482Z,30.52
2017-10-05T07:30:54.325Z,23.90
2017-10-05T07:33:25.569Z,21.25
2017-10-05T07:35:57.101Z,40.05
2017-10-05T07:38:28.187Z,25.90
2017-10-05T07:40:59.501Z,36.63
2017-10-05T07:43:31.202Z,26.33
2017-10-05T07:46:03.277Z,31.42
2017-10-05T07:48:34.643Z,35.10
2017-10-05T07:51:07.136Z,27.58
2017-10-05T07:53:38.162Z,22.83
2017-10-05T07:56:08.881Z,24.60
2017-10-05T07:58:40.764Z,18.52
2017-10-05T08:01:11.973Z,25.37
2017-10-05T08:03:45.129Z,24.15
2017-10-05T08:06:16.901Z,20.00
2017-10-05T08:08:48.775Z,18.75
2017-10-05T08:11:19.246Z,26.77
2017-10-05T08:13:49.791Z,15.60
2017-10-05T08:16:22.146Z,17.62
2017-10-05T08:18:53.815Z,19.95
2017-10-05T08:21:25.998Z,19.70
2017-10-05T08:23:57.295Z,19.55
2017-10-05T08:26:28.553Z,23.12
2017-10-05T08:28:59.357Z,17.80
2017-10-05T08:31:31.600Z,15.25
2017-10-05T08:34:03.169Z,18.33
2017-10-05T08:36:35.550Z,23.62
2017-10-05T08:39:07.187Z,14.57
2017-10-05T08:41:38.018Z,10.02
2017-10-05T08:44:08.931Z,15.45
2017-10-05T08:46:40.110Z,14.40
2017-10-05T08:49:11.104Z,10.20
2017-10-05T08:51:41.503Z,12.93
2017-10-05T08:54:12.081Z,10.02
2017-10-05T08:56:42.990Z,12.93
2017-10-05T08:59:14.111Z,11.35
2017-10-05T09:01:45.789Z,13.25
2017-10-05T09:04:17.025Z,9.00
2017-10-05T09:06:48.016Z,8.63
2017-10-05T09:09:18.712Z,9.85
2017-10-05T09:11:50.508Z,7.25
2017-10-05T09:14:22.582Z,7.75
2017-10-05T09:16:54.296Z,8.88
2017-10-05T09:19:25.548Z,7.60
2017-10-05T09:21:56.566Z,8.57
2017-10-05T09:24:27.919Z,6.70
2017-10-05T09:26:58.987Z,8.13
2017-10-05T09:29:30.256Z,7.78
2017-10-05T09:32:03.701Z,5.93
2017-10-05T09:34:34.879Z,9.00
2017-10-05T09:37:05.968Z,6.82
2017-10-05T09:39:37.277Z,10.80
2017-10-05T09:42:09.375Z,6.85
2017-10-05T09:44:40.612Z,6.40
2017-10-05T09:47:11.974Z,6.10
2017-10-05T09:49:42.937Z,6.75
2017-10-05T09:52:15.374Z,8.48
2017-10-05T09:54:47.936Z,6.53
2017-10-05T09:57:20.084Z,8.02
2017-10-05T09:59:51.205Z,6.45
2017-10-05T10:02:21.749Z,8.00
2017-10-05T10:04:52.982Z,6.28
2017-10-05T10:07:24.060Z,7.25
2017-10-05T10:09:55.155Z,8.73
2017-10-05T10:12:27.127Z,5.82
2017-10-05T10:14:58.235Z,7.10
2017-10-05T10:17:29.880Z,5.03
2017-10-05T10:20:01.602Z,9.43
2017-10-05T10:22:32.067Z,8.63
2017-10-05T10:25:02.596Z,7.55
2017-10-05T10:27:34.275Z,8.45
2017-10-05T10:30:06.040Z,19.12
2017-10-05T10:32:37.461Z,19.60
2017-10-05T10:35:08.708Z,20.45
2017-10-05T10:37:40.066Z,15.15
2017-10-05T10:40:11.589Z,18.70
2017-10-05T10:42:42.525Z,24.67
2017-10-05T10:45:13.482Z,29.10
2017-10-05T10:47:44.725Z,16.37
2017-10-05T10:50:15.548Z,24.92
2017-10-05T10:52:46.766Z,19.85
2017-10-05T10:55:17.604Z,18.60
2017-10-05T10:57:49.194Z,16.85
2017-10-05T11:00:20.291Z,16.30
2017-10-05T11:02:52.007Z,10.00
2017-10-05T11:05:23.643Z,14.90
2017-10-05T11:07:54.740Z,9.70
2017-10-05T11:10:25.819Z,10.88
2017-10-05T11:12:56.557Z,14.73
2017-10-05T11:15:26.915Z,10.00
2017-10-05T11:17:59.186Z,13.32
2017-10-05T11:20:32.029Z,8.02
2017-10-05T11:23:03.258Z,5.80
2017-10-05T11:25:34.469Z,15.23
2017-10-05T11:28:05.464Z,10.48
2017-10-05T11:30:36.764Z,12.17
2017-10-05T11:33:07.725Z,14.23
2017-10-05T11:35:38.784Z,6.53
2017-10-05T11:38:09.751Z,11.43
2017-10-05T11:40:41.089Z,10.03
2017-10-05T11:43:13.421Z,16.92
2017-10-05T11:45:45.024Z,9.43
2017-10-05T11:48:17.472Z,10.90
2017-10-05T11:50:49.047Z,7.10
2017-10-05T11:53:21.165Z,6.50
2017-10-05T11:55:52.986Z,11.53
2017-10-05T11:58:23.996Z,9.43
2017-10-05T12:00:54.980Z,11.73
2017-10-05T12:03:25.783Z,7.37
2017-10-05T12:05:57.264Z,6.90
2017-10-05T12:08:28.105Z,22.27
2017-10-05T12:10:58.797Z,10.97
2017-10-05T12:13:30.262Z,6.03
2017-10-05T12:16:01.412Z,14.90
2017-10-05T12:18:33.308Z,11.77
2017-10-05T12:21:03.994Z,11.97
2017-10-05T12:23:34.588Z,8.73
2017-10-05T12:26:06.626Z,13.17
2017-10-05T12:28:37.796Z,8.40
2017-10-05T12:31:08.474Z,10.27
2017-10-05T12:33:40.335Z,6.90
2017-10-05T12:36:12.119Z,15.03
2017-10-05T12:38:43.781Z,15.13
2017-10-05T12:41:14.834Z,5.93
2017-10-05T12:43:46.278Z,6.70
2017-10-05T12:46:17.021Z,4.75
2017-10-05T12:48:47.539Z,11.30
2017-10-05T12:51:18.443Z,7.23
2017-10-05T12:53:49.344Z,9.90
2017-10-05T12:56:20.351Z,11.43
2017-10-05T12:58:51.794Z,7.07
2017-10-05T13:01:22.680Z,8.65
2017-10-05T13:03:55.150Z,9.30
2017-10-05T13:06:26.725Z,6.53
2017-10-05T13:08:56.982Z,7.77
2017-10-05T13:11:27.563Z,5.43
2017-10-05T13:13:59.028Z,14.32
2017-10-05T13:16:30.317Z,5.60
2017-10-05T13:19:01.274Z,5.07
2017-10-05T13:21:32.633Z,8.82
2017-10-05T13:24:04.069Z,12.30
2017-10-05T13:26:36.274Z,7.70
2017-10-05T13:29:07.321Z,11.82
2017-10-05T13:31:38.142Z,3.83
2017-10-05T13:34:09.377Z,5.10
2017-10-05T13:36:41.416Z,10.82
2017-10-05T13:39:12.177Z,4.93
2017-10-05T13:41:42.415Z,8.67
2017-10-05T13:44:15.248Z,10.37
2017-10-05T13:46:46.658Z,9.70
2017-10-05T13:49:17.976Z,9.40
2017-10-05T13:51:49.237Z,11.57
2017-10-05T13:54:20.816Z,6.00
2017-10-05T13:56:52.403Z,12.00
2017-10-05T13:59:22.855Z,5.43
2017-10-05T14:01:54.420Z,7.60
2017-10-05T14:04:25.386Z,7.40
2017-10-05T14:06:57.290Z,10.47
2017-10-05T14:09:28.250Z,6.80
2017-10-05T14:11:59.398Z,4.30
2017-10-05T14:14:31.008Z,6.83
2017-10-05T14:17:02.126Z,7.00
2017-10-05T14:19:32.984Z,7.10
2017-10-05T14:22:04.303Z,4.80
2017-10-05T14:24:35.189Z,3.65
2017-10-05T14:27:06.054Z,2.70
2017-10-05T14:29:36.531Z,7.10
2017-10-05T14:32:07.390Z,2.65
2017-10-05T14:34:37.857Z,2.65
2017-10-05T14:37:09.458Z,3.03
2017-10-05T14:39:39.735Z,3.28
2017-10-05T14:42:10.595Z,7.43
2017-10-05T14:44:41.476Z,5.75
2017-10-05T14:47:12.325Z,4.37
2017-10-05T14:49:42.723Z,5.75
2017-10-05T14:52:15.261Z,12.10
2017-10-05T14:54:47.018Z,3.25
2017-10-05T14:57:17.828Z,5.62
2017-10-05T14:59:49.940Z,10.38
2017-10-05T15:02:21.301Z,9.27
2017-10-05T15:04:51.987Z,8.52
2017-10-05T15:07:23.410Z,10.05
2017-10-05T15:09:54.369Z,7.15
2017-10-05T15:12:25.867Z,7.57
2017-10-05T15:14:56.795Z,8.20
2017-10-05T15:17:27.712Z,9.25
2017-10-05T15:19:58.334Z,13.30
2017-10-05T15:22:29.993Z,18.15
2017-10-05T15:25:01.137Z,18.05
2017-10-05T15:27:32.772Z,14.30
2017-10-05T15:30:03.513Z,10.13
2017-10-05T15:32:34.856Z,13.60
2017-10-05T15:35:06.548Z,13.98
2017-10-05T15:37:37.195Z,18.60
2017-10-05T15:40:08.007Z,12.50
2017-10-05T15:42:38.665Z,18.37
2017-10-05T15:45:09.885Z,12.68
2017-10-05T15:47:41.055Z,11.43
2017-10-05T15:50:12.040Z,20.62
2017-10-05T15:52:43.756Z,15.07
2017-10-05T15:55:14.646Z,9.90
2017-10-05T15:57:47.028Z,8.27
2017-10-05T16:00:18.012Z,16.65
2017-10-05T16:02:48.571Z,7.45
2017-10-05T16:05:21.052Z,15.60
2017-10-05T16:07:54.103Z,12.35
2017-10-05T16:10:25.077Z,11.43
2017-10-05T16:12:56.141Z,14.38
2017-10-05T16:15:26.904Z,8.38
2017-10-05T16:18:00.122Z,20.17
2017-10-05T16:20:31.283Z,11.77
2017-10-05T16:23:02.199Z,11.05
2017-10-05T16:25:33.159Z,12.07
2017-10-05T16:28:04.724Z,13.62
2017-10-05T16:30:36.140Z,10.43
2017-10-05T16:33:06.903Z,19.05
2017-10-05T16:35:37.527Z,15.02
2017-10-05T16:38:09.441Z,18.70
2017-10-05T16:40:40.315Z,12.27
2017-10-05T16:43:11.509Z,17.83
2017-10-05T16:45:42.089Z,21.83
2017-10-05T16:48:13.107Z,10.35
2017-10-05T16:50:43.871Z,15.88
2017-10-05T16:53:15.087Z,10.43
2017-10-05T16:55:45.719Z,11.57
2017-10-05T16:58:16.295Z,13.85
2017-10-05T17:00:47.799Z,12.30
2017-10-05T17:03:18.706Z,19.12
2017-10-05T17:05:52.707Z,13.27
2017-10-05T17:08:24.128Z,16.25
2017-10-05T17:10:54.760Z,15.50
2017-10-05T17:13:26.060Z,23.65
2017-10-05T17:15:56.441Z,14.48
2017-10-05T17:18:26.792Z,19.90
2017-10-05T17:20:57.108Z,15.13
2017-10-05T17:23:27.682Z,17.60
2017-10-05T17:25:58.142Z,16.15
2017-10-05T17:28:29.141Z,18.20
2017-10-05T17:31:00.037Z,18.35
2017-10-05T17:33:30.655Z,9.75
2017-10-05T17:36:01.710Z,15.57
2017-10-05T17:38:32.002Z,19.75
2017-10-05T17:41:02.379Z,13.60
2017-10-05T17:43:33.154Z,18.20
2017-10-05T17:46:03.950Z,14.73
2017-10-05T17:48:34.464Z,16.77
2017-10-05T17:51:05.105Z,26.52
2017-10-05T17:53:35.644Z,15.82
2017-10-05T17:56:07.211Z,23.02
2017-10-05T17:58:39.290Z,12.23
2017-10-05T18:01:09.633Z,14.13
2017-10-05T18:03:40.876Z,7.53
2017-10-05T18:06:12.283Z,16.95
2017-10-05T18:08:43.909Z,13.95
2017-10-05T18:11:15.240Z,10.73
2017-10-05T18:13:46.237Z,22.95
2017-10-05T18:16:16.770Z,19.35
2017-10-05T18:18:47.534Z,13.07
2017-10-05T18:21:18.762Z,13.98
2017-10-05T18:23:49.634Z,8.63
2017-10-05T18:26:21.039Z,14.52
2017-10-05T18:28:51.480Z,9.55
2017-10-05T18:31:21.851Z,16.33
2017-10-05T18:33:52.203Z,11.70
2017-10-05T18:36:22.556Z,21.40
2017-10-05T18:38:53.639Z,14.98
2017-10-05T18:41:24.382Z,21.83
2017-10-05T18:43:55.367Z,12.60
2017-10-05T18:46:27.391Z,11.10
2017-10-05T18:48:57.925Z,19.75
2017-10-05T18:51:29.012Z,15.57
2017-10-05T18:53:59.286Z,17.98
2017-10-05T18:56:29.728Z,23.80
2017-10-05T18:59:00.861Z,12.27
2017-10-05T19:01:31.912Z,11.35
2017-10-05T19:04:02.330Z,15.48
2017-10-05T19:06:32.680Z,17.48
2017-10-05T19:09:03.099Z,20.15
2017-10-05T19:11:33.502Z,20.65
2017-10-05T19:14:05.228Z,17.80
2017-10-05T19:16:36.702Z,8.38
2017-10-05T19:19:07.220Z,13.95
2017-10-05T19:21:37.975Z,16.08
2017-10-05T19:24:09.958Z,19.85
2017-10-05T19:26:40.429Z,12.10
2017-10-05T19:29:11.528Z,14.48
2017-10-05T19:31:42.258Z,20.52
2017-10-05T19:34:14.863Z,11.52
2017-10-05T19:36:45.801Z,19.87
2017-10-05T19:39:17.060Z,17.25
2017-10-05T19:41:50.464Z,10.10
2017-10-05T19:44:22.975Z,12.57
2017-10-05T19:46:54.796Z,32.22
2017-10-05T19:49:25.940Z,15.43
2017-10-05T19:51:56.772Z,10.23
2017-10-05T19:54:27.117Z,20.25
2017-10-05T19:56:58.752Z,12.20
2017-10-05T19:59:29.174Z,9.38
2017-10-05T20:02:01.109Z,13.98
2017-10-05T20:04:32.858Z,16.20
2017-10-05T20:07:03.556Z,6.75
2017-10-05T20:09:35.812Z,14.48
2017-10-05T20:12:06.941Z,16.60
2017-10-05T20:14:40.972Z,16.12
2017-10-05T20:17:32.116Z,11.38
2017-10-05T20:20:19.751Z,8.45
2017-10-05T20:22:51.542Z,9.05
2017-10-05T20:25:25.368Z,7.35
2017-10-05T20:28:01.552Z,20.88
2017-10-05T20:30:51.621Z,12.20
2017-10-05T20:33:22.368Z,8.23
2017-10-05T20:35:53.028Z,8.85
2017-10-05T20:38:23.511Z,8.80
2017-10-05T20:40:56.321Z,13.80
2017-10-05T20:43:27.831Z,11.57
2017-10-05T20:45:59.134Z,12.82
2017-10-05T20:48:29.569Z,8.77
2017-10-05T20:51:00.267Z,9.27
2017-10-05T20:53:30.487Z,9.27
2017-10-05T20:56:00.848Z,20.17
2017-10-05T20:58:32.615Z,10.82
2017-10-05T21:01:03.914Z,8.35
2017-10-05T21:03:34.470Z,6.70
2017-10-05T21:06:04.769Z,8.23
2017-10-05T21:08:35.710Z,6.78
2017-10-05T21:11:06.246Z,15.32
2017-10-05T21:13:37.888Z,8.15
2017-10-05T21:16:09.309Z,12.20
2017-10-05T21:18:39.801Z,10.02
2017-10-05T21:21:10.443Z,6.70
2017-10-05T21:23:40.677Z,9.60
2017-10-05T21:26:12.296Z,12.48
2017-10-05T21:28:43.482Z,13.15
2017-10-05T21:31:15.034Z,5.53
2017-10-05T21:33:46.609Z,8.80
2017-10-05T21:36:17.900Z,8.18
2017-10-05T21:38:49.148Z,4.87
2017-10-05T21:41:20.239Z,8.93
2017-10-05T21:43:50.889Z,5.87
2017-10-05T21:46:21.280Z,9.25
2017-10-05T21:48:52.596Z,6.62
2017-10-05T21:51:24.534Z,11.38
2017-10-05T21:53:55.318Z,10.38
2017-10-05T21:56:26.195Z,4.57
2017-10-05T21:58:56.277Z,9.98
2017-10-05T22:01:27.483Z,9.88
2017-10-05T22:03:59.187Z,21.40
2017-10-05T22:06:30.571Z,16.67
2017-10-05T22:09:01.397Z,12.20
2017-10-05T22:11:31.690Z,11.93
2017-10-05T22:14:02.403Z,13.77
2017-10-05T22:16:32.673Z,10.48
2017-10-05T22:19:04.289Z,9.02
2017-10-05T22:21:35.750Z,5.03
2017-10-05T22:24:07.036Z,9.13
2017-10-05T22:26:36.910Z,6.35
2017-10-05T22:29:07.997Z,6.85
2017-10-05T22:31:39.932Z,8.95
2017-10-05T22:34:10.400Z,8.95
2017-10-05T22:36:41.242Z,7.80
2017-10-05T22:39:11.733Z,15.95
2017-10-05T22:41:42.243Z,5.47
2017-10-05T22:44:13.123Z,10.70
2017-10-05T22:46:43.513Z,11.70
2017-10-05T22:49:15.225Z,7.80
2017-10-05T22:51:45.634Z,9.88
2017-10-05T22:54:16.106Z,13.68
2017-10-05T22:56:48.038Z,9.30
2017-10-05T22:59:18.620Z,8.55
2017-10-05T23:01:49.500Z,9.57
2017-10-05T23:04:19.639Z,9.00
2017-10-05T23:06:49.857Z,7.87
2017-10-05T23:09:20.290Z,6.10
2017-10-05T23:11:50.824Z,5.45
2017-10-05T23:14:21.230Z,8.43
2017-10-05T23:16:52.551Z,15.85
2017-10-05T23:19:23.456Z,9.38
2017-10-05T23:21:53.432Z,10.25
2017-10-05T23:24:24.013Z,7.20
2017-10-05T23:26:54.035Z,6.68
2017-10-05T23:29:24.550Z,9.20
2017-10-05T23:31:55.105Z,6.00
2017-10-05T23:34:25.542Z,10.85
2017-10-05T23:36:55.479Z,7.30
2017-10-05T23:39:25.691Z,7.65
2017-10-05T23:41:56.348Z,10.20
2017-10-05T23:44:27.248Z,5.70
2017-10-05T23:46:58.686Z,9.93
2017-10-05T23:49:29.620Z,6.12
2017-10-05T23:52:00.116Z,11.32
2017-10-05T23:54:30.633Z,5.37
2017-10-05T23:57:01.723Z,6.70
2017-10-05T23:59:32.159Z,3.92
